SAWC Airport Information

Runway Information
Runway 7 Length 8366 ft width 148 ft
Elevation 669 ft Threshold ft Heading 85
Runway 25 Length 8366 ft Width 148 ft
Elevation 653 ft Threshold ft Heading 265
Airport Frequencies
Type APP Name APP/TWR Frequency 119.95 MHZ
Type GND Name GND Frequency 121.8 MHZ
Airport Navaids
Type VOR-DME Name El Calafate Frequency 114700 KHZ
Type NDB Name El Calafate Frequency 385 KHZ
Airport Weather Information & NOTAM
ADDS - METARS form results

(1851 UTC 30 September 2022)
Data provider http://aviationweather.gov/metar/data/
 
METAR text: SAWC 301817Z 27024G34KT CAVOK 13/M11 Q1012
Conditions at: SAWC observed 1817 UTC 30 September 2022
Temperature: 13.0°C (55°F)
Dewpoint: -11.0°C (12°F) [RH = 18%]
Pressure (altimeter): 29.88 inches Hg (1012.0 mb)
Winds: from the W (270 degrees) at 28 MPH (24 knots; 12.3 m/s)
gusting to 39 MPH (34 knots; 17.5 m/s)
Visibility: 6 or more miles (10+ km)
Ceiling: ceiling and visibility are OK
Clouds: unknown
Weather: no significant weather observed at this time